Historyczne dane pomiarowe

Dodano dane terminowe – wersja testowa.

Dane z okresu 1951-2019

Wersja bazy: 1.34 [2019-03-16, lista zmian], aktualizacja planowana na 2019-04-15

Dane meteo z obszaru Polski uzyskane na podstawie danych udostępnionych przez Instytut Meteorologii i Gospodarki Wodnej – Państwowy Instytut Badawczy.

 

Wybierz Datę:    

       

TemperaturaWilgotnośćWiatrCiśnienieOpadyŚniegCzas trwania zjawisk
 Stacja t tx tn tng RH VA  wxwx mslp ppp RRR   cm mm wxwxwxwxwxwxwx
1987-08-14 9.8 18.6 3.6 1.9 85.0- 4.0 1.0---- 1.6------------
1987-08-13 11.5 17.2 4.9 3.2 75.0- 3.3 0.3---- 0.0------------
1987-08-12 11.7 17.5 6.4 4.2 71.8- 5.0 1.0---- 0.0------------
1987-08-11 13.0 17.3 9.8 9.3 74.0- 4.0 0.3---- 2.1------------
1987-08-10 14.5 19.0 13.4 11.2 83.8- 4.7 0.7---- 6.7------------
1987-08-09 16.1 22.8 6.7 4.5 69.0- 2.7 1.3---- 0.0------------
1987-08-08 12.9 19.8 8.8 6.1 76.0- 0.0 0.3---- 0.0------------
1987-08-07 8.1 14.7 2.5 0.4 82.8- 4.0 0.7---- 0.0------------
1987-08-06 9.4 14.1 8.2 7.7 86.0- 4.7 1.3---- 4.9------------
1987-08-05 11.0 14.9 8.0 6.8 83.5- 6.7 0.7---- 2.7------------
1987-08-04 13.6 17.6 10.2 8.0 81.5- 5.0 1.3---- 0.5------------
1987-08-03 14.4 19.3 10.4 9.0 75.3- 3.7 1.0---- 0.0------------
1987-08-02 14.0 18.5 11.5 10.7 81.8- 4.0 0.3---- 12.1------------
1987-08-01 13.7 21.5 6.7 5.4 83.3- 4.3 0.7---- 3.9------------
1987-07-31 15.0 21.6 12.4 10.4 88.0- 7.3 1.0---- 3.9------------
1987-07-30 16.8 23.9 11.4 10.0 72.5- 1.0 0.7---- 0.0------------
1987-07-29 12.2 19.1 7.7 6.8 79.8- 4.0 0.3---- 0.0------------
1987-07-28 12.3 15.5 10.5 10.1 82.0- 5.3 0.7---- 5.1------------
1987-07-27 11.7 16.9 7.3 6.3 75.0- 4.0 1.0---- 0.0------------
1987-07-26 13.4 21.0 10.2 10.2 90.8- 7.0 0.0---- 11.1------------
1987-07-25 18.0 24.5 13.0 11.5 82.3- 4.7 0.7---- 0.0------------
1987-07-24 19.5 28.7 16.0 13.5 84.8- 3.0 0.3---- 6.1------------
1987-07-23 19.6 28.3 11.3 9.8 78.0- 1.7 0.3---- 1.1------------
1987-07-22 19.6 25.3 15.2 13.1 78.3- 4.3 0.7---- 0.0------------
1987-07-21 20.9 27.7 13.4 11.7 74.3- 2.0 0.7---- 0.0------------
1987-07-20 21.0 26.0 16.7 14.4 79.0- 2.3 1.0---- 0.0------------
1987-07-19 22.6 30.6 15.0 12.4 75.8- 2.7 0.7---- 0.1------------
1987-07-18 22.5 30.5 15.4 11.7 69.5- 1.7 0.0---- 0.0------------
1987-07-17 21.4 30.0 14.2 11.2 69.8- 4.0 0.7---- 0.0------------
1987-07-16 18.4 26.9 11.4 9.0 80.0- 4.0 0.3---- 3.0------------
1987-07-15 16.0 24.9 7.3 5.1 73.5- 0.0 0.7---- 0.0------------
1987-07-14 16.5 21.5 11.0 10.9 71.5- 1.0 0.7---- 0.0------------
1987-07-13 18.3 25.8 14.1 11.7 76.5- 5.0 0.7---- 0.0------------
1987-07-12 21.0 28.6 11.4 8.1 62.3- 3.3 1.3---- 6.1------------
1987-07-11 15.0 24.5 6.9 4.7 69.5- 2.3 0.7---- 0.0------------
1987-07-10 14.1 19.0 9.2 6.9 72.3- 2.3 0.3---- 0.0------------
1987-07-09 16.3 25.6 14.0 9.2 83.3- 6.7 0.7---- 9.1------------
1987-07-08 21.3 29.5 10.7 7.7 56.0- 0.0 0.7---- 0.0------------
1987-07-07 16.8 26.9 6.1 3.3 68.5- 0.0 0.7---- 0.0------------
1987-07-06 15.4 22.0 7.5 5.8 69.8- 0.3 0.7---- 0.0------------
1987-07-05 14.3 19.4 12.9 10.5 90.8- 6.0 0.0---- 3.2------------
1987-07-04 18.4 22.5 13.3 10.0 74.8- 3.3 1.0---- 0.6------------
1987-07-03 17.3 21.8 14.8 14.2 80.3- 5.7 1.3---- 0.0------------
1987-07-02 19.0 27.9 16.4 15.3 88.8- 5.3 0.3---- 0.1------------
1987-07-01 24.4 31.1 16.5 14.9 70.8- 2.7 0.3---- 0.0------------
1987-06-30 22.6 29.9 13.0 10.9 76.3- 1.0 0.7---- 0.0------------
1987-06-29 20.4 25.5 15.9 13.9 74.3- 1.7 0.7---- 0.0------------
1987-06-28 19.1 25.2 14.9 12.3 72.3- 4.3 0.3---- 0.0------------
1987-06-27 17.2 22.5 13.1 11.1 87.0- 5.3 0.3---- 0.8------------
1987-06-26 15.2 23.5 5.5 2.7 74.3- 2.7 1.0---- 1.5------------
1987-06-25 13.9 18.8 12.2 11.1 79.0- 5.0 1.0---- 0.0------------
1987-06-24 15.5 20.5 9.8 9.5 74.5- 4.0 1.0---- 3.8------------
1987-06-23 14.5 20.3 12.0 11.7 82.5- 5.7 0.3---- 0.0------------
1987-06-22 13.3 19.2 10.4 9.3 93.8- 6.3 0.0---- 23.2------------
1987-06-21 13.6 21.9 7.4 5.8 80.0- 3.3 0.7---- 28.5------------
1987-06-20 13.5 21.1 4.6 3.1 69.3- 3.3 0.7---- 0.6------------
1987-06-19 12.5 19.2 5.2 2.0 66.8- 2.3 0.7---- 0.0------------
1987-06-18 10.1 16.9 4.7 1.6 74.0- 4.0 1.0---- 1.4------------
1987-06-17 9.6 13.6 6.0 5.8 81.3- 5.0 0.7---- 2.5------------
1987-06-16 15.1 25.8 10.2 10.1 80.5- 6.0 1.0---- 27.7------------
360.3 ms

 

Źródłem pochodzenia danych jest Instytut Meteorologii i Gospodarki Wodnej – Państwowy Instytut Badawczy. Dane Instytutu Meteorologii i Gospodarki Wodnej – Państwowego Instytutu Badawczego zostały przetworzone.

Dane źródłowe można odnaleźć na stronie https://dane.imgw.pl